createdAt,value
2023-01-08T00:02:17.835Z,19.73
2023-01-08T00:06:04.248Z,23.98
2023-01-08T00:09:47.797Z,20.53
2023-01-08T00:13:29.915Z,20.05
2023-01-08T00:17:11.701Z,25.67
2023-01-08T00:20:53.469Z,21.35
2023-01-08T00:24:36.479Z,24.08
2023-01-08T00:28:18.392Z,23.98
2023-01-08T00:32:00.217Z,21.60
2023-01-08T00:35:42.034Z,27.70
2023-01-08T00:39:23.894Z,22.67
2023-01-08T00:43:05.981Z,25.48
2023-01-08T00:46:47.792Z,27.02
2023-01-08T00:50:29.566Z,22.95
2023-01-08T00:54:11.914Z,21.92
2023-01-08T00:57:53.757Z,20.98
2023-01-08T01:01:35.714Z,19.02
2023-01-08T01:05:17.799Z,24.73
2023-01-08T01:08:59.547Z,24.42
2023-01-08T01:12:41.673Z,23.65
2023-01-08T01:16:24.483Z,35.97
2023-01-08T01:20:08.185Z,18.92
2023-01-08T01:23:50.316Z,22.80
2023-01-08T01:27:32.102Z,15.63
2023-01-08T01:31:14.359Z,12.95
2023-01-08T01:34:56.185Z,16.83
2023-01-08T01:38:38.027Z,15.57
2023-01-08T01:42:39.469Z,13.70
2023-01-08T01:46:37.996Z,10.38
2023-01-08T01:50:29.528Z,7.18
2023-01-08T01:54:12.939Z,6.53
2023-01-08T01:58:17.687Z,6.03
2023-01-08T02:02:00.372Z,3.40
2023-01-08T02:05:59.004Z,4.55
2023-01-08T02:09:46.963Z,5.82
2023-01-08T02:13:33.684Z,1.88
2023-01-08T02:17:28.085Z,6.57
2023-01-08T02:21:16.902Z,9.82
2023-01-08T02:25:11.210Z,4.22
2023-01-08T02:29:05.381Z,3.80
2023-01-08T02:32:47.139Z,4.60
2023-01-08T02:36:44.921Z,5.55
2023-01-08T02:40:35.559Z,8.95
2023-01-08T02:44:25.930Z,6.05
2023-01-08T02:48:26.014Z,6.78
2023-01-08T02:52:10.835Z,6.57
2023-01-08T02:55:57.647Z,3.42
2023-01-08T02:59:42.945Z,4.68
2023-01-08T03:03:27.813Z,4.63
2023-01-08T03:07:09.971Z,2.08
2023-01-08T03:10:59.374Z,4.57
2023-01-08T03:14:50.833Z,6.22
2023-01-08T03:18:37.884Z,3.75
2023-01-08T03:22:22.148Z,2.25
2023-01-08T03:26:06.064Z,2.22
2023-01-08T03:29:50.940Z,4.00
2023-01-08T03:33:34.195Z,4.47
2023-01-08T03:37:20.094Z,3.90
2023-01-08T03:41:06.603Z,3.08
2023-01-08T03:44:50.212Z,1.43
2023-01-08T03:48:34.173Z,4.75
2023-01-08T03:52:27.932Z,4.22
2023-01-08T03:56:12.207Z,5.05
2023-01-08T03:59:54.076Z,2.33
2023-01-08T04:03:36.611Z,4.95
2023-01-08T04:07:18.407Z,2.67
2023-01-08T04:11:00.177Z,4.35
2023-01-08T04:14:41.974Z,7.07
2023-01-08T04:18:23.768Z,4.78
2023-01-08T04:22:05.584Z,7.57
2023-01-08T04:25:47.378Z,4.65
2023-01-08T04:29:29.193Z,4.07
2023-01-08T04:33:10.999Z,3.60
2023-01-08T04:36:52.740Z,5.38
2023-01-08T04:40:35.021Z,10.00
2023-01-08T04:44:16.863Z,8.90
2023-01-08T04:47:59.686Z,7.57
2023-01-08T04:51:41.465Z,7.35
2023-01-08T04:55:23.288Z,7.07
2023-01-08T04:59:05.104Z,7.05
2023-01-08T05:02:46.972Z,9.18
2023-01-08T05:06:30.416Z,4.03
2023-01-08T05:10:12.221Z,5.47
2023-01-08T05:13:54.117Z,6.45
2023-01-08T05:17:36.024Z,8.48
2023-01-08T05:21:18.429Z,12.25
2023-01-08T05:25:00.236Z,7.80
2023-01-08T05:28:42.153Z,6.97
2023-01-08T05:32:23.951Z,10.95
2023-01-08T05:36:08.096Z,7.50
2023-01-08T05:39:49.927Z,8.80
2023-01-08T05:43:32.023Z,6.53
2023-01-08T05:47:13.783Z,6.40
2023-01-08T05:50:55.890Z,5.95
2023-01-08T05:54:37.649Z,10.48
2023-01-08T05:58:19.541Z,10.68
2023-01-08T06:02:01.295Z,12.77
2023-01-08T06:05:43.034Z,5.18
2023-01-08T06:09:24.777Z,8.65
2023-01-08T06:13:10.454Z,10.00
2023-01-08T06:16:52.204Z,7.68
2023-01-08T06:20:33.997Z,10.25
2023-01-08T06:24:15.967Z,14.57
2023-01-08T06:27:57.701Z,12.55
2023-01-08T06:31:39.531Z,9.88
2023-01-08T06:35:21.292Z,8.15
2023-01-08T06:39:05.486Z,15.93
2023-01-08T06:42:47.277Z,9.18
2023-01-08T06:46:29.119Z,10.18
2023-01-08T06:50:12.494Z,13.50
2023-01-08T06:53:54.209Z,10.70
2023-01-08T06:57:36.003Z,18.73
2023-01-08T07:01:17.905Z,8.18
2023-01-08T07:04:59.739Z,9.70
2023-01-08T07:08:41.607Z,10.05
2023-01-08T07:12:23.418Z,10.82
2023-01-08T07:16:09.457Z,14.05
2023-01-08T07:19:51.291Z,6.78
2023-01-08T07:23:33.551Z,21.35
2023-01-08T07:27:15.360Z,9.30
2023-01-08T07:30:57.381Z,11.57
2023-01-08T07:34:39.176Z,12.50
2023-01-08T07:38:21.106Z,9.50
2023-01-08T07:42:02.883Z,9.55
2023-01-08T07:45:44.704Z,6.22
2023-01-08T07:49:26.764Z,9.73
2023-01-08T07:53:09.031Z,11.43
2023-01-08T07:56:50.840Z,15.40
2023-01-08T08:00:32.595Z,12.35
2023-01-08T08:04:17.467Z,13.20
2023-01-08T08:07:59.292Z,12.93
2023-01-08T08:11:41.032Z,9.88
2023-01-08T08:15:22.820Z,12.13
2023-01-08T08:19:04.663Z,11.55
2023-01-08T08:22:46.517Z,13.38
2023-01-08T08:26:28.287Z,10.88
2023-01-08T08:30:11.758Z,14.70
2023-01-08T08:33:53.558Z,9.52
2023-01-08T08:37:35.347Z,11.25
2023-01-08T08:41:17.578Z,13.13
2023-01-08T08:44:59.370Z,10.52
2023-01-08T08:48:41.227Z,11.70
2023-01-08T08:52:23.226Z,11.05
2023-01-08T08:56:05.390Z,12.00
2023-01-08T08:59:47.124Z,8.98
2023-01-08T09:03:28.968Z,5.90
2023-01-08T09:07:11.065Z,12.18
2023-01-08T09:10:52.932Z,9.38
2023-01-08T09:14:34.655Z,8.93
2023-01-08T09:18:16.451Z,12.63
2023-01-08T09:21:58.228Z,11.13
2023-01-08T09:25:40.020Z,11.77
2023-01-08T09:29:21.953Z,5.93
2023-01-08T09:33:04.999Z,20.60
2023-01-08T09:36:46.913Z,8.32
2023-01-08T09:40:48.903Z,5.05
2023-01-08T09:44:37.385Z,6.32
2023-01-08T09:48:23.489Z,8.55
2023-01-08T09:52:05.563Z,9.70
2023-01-08T09:56:09.140Z,10.45
2023-01-08T09:59:52.184Z,8.95
2023-01-08T10:04:00.608Z,5.13
2023-01-08T10:07:42.984Z,6.10
2023-01-08T10:11:28.358Z,2.97
2023-01-08T10:15:15.990Z,5.22
2023-01-08T10:18:59.899Z,1.95
2023-01-08T10:22:42.040Z,6.13
2023-01-08T10:26:32.436Z,4.68
2023-01-08T10:30:23.585Z,1.35
2023-01-08T10:34:10.554Z,2.03
2023-01-08T10:37:52.664Z,4.53
2023-01-08T10:41:39.525Z,2.22
2023-01-08T10:45:24.540Z,0.63
2023-01-08T10:49:07.952Z,1.85
2023-01-08T10:53:01.749Z,3.03
2023-01-08T10:56:44.983Z,4.05
2023-01-08T11:00:30.618Z,5.95
2023-01-08T11:04:35.759Z,9.50
2023-01-08T11:08:22.896Z,5.38
2023-01-08T11:12:05.261Z,3.78
2023-01-08T11:15:57.652Z,7.72
2023-01-08T11:19:39.985Z,7.28
2023-01-08T11:23:30.267Z,3.45
2023-01-08T11:27:33.591Z,3.17
2023-01-08T11:31:23.225Z,5.35
2023-01-08T11:35:26.755Z,5.40
2023-01-08T11:39:09.553Z,3.47
2023-01-08T11:43:23.137Z,5.40
2023-01-08T11:47:55.227Z,3.08
2023-01-08T11:52:03.297Z,2.67
2023-01-08T11:55:57.221Z,4.53
2023-01-08T11:59:50.706Z,3.70
2023-01-08T12:03:51.608Z,5.95
2023-01-08T12:07:50.091Z,4.68
2023-01-08T12:11:58.211Z,5.88
2023-01-08T12:16:17.578Z,6.05
2023-01-08T12:20:11.886Z,5.82
2023-01-08T12:24:08.501Z,6.55
2023-01-08T12:28:37.687Z,6.88
2023-01-08T12:32:42.454Z,4.28
2023-01-08T12:36:30.687Z,3.97
2023-01-08T12:40:14.886Z,2.28
2023-01-08T12:44:10.060Z,5.57
2023-01-08T12:47:59.135Z,3.45
2023-01-08T12:52:02.088Z,4.35
2023-01-08T12:56:00.938Z,6.93
2023-01-08T13:00:17.712Z,2.72
2023-01-08T13:04:01.301Z,2.63
2023-01-08T13:08:04.739Z,2.53
2023-01-08T13:11:52.673Z,3.58
2023-01-08T13:15:35.089Z,5.18
2023-01-08T13:19:25.652Z,3.15
2023-01-08T13:23:07.597Z,3.45
2023-01-08T13:26:49.618Z,2.22
2023-01-08T13:30:43.086Z,1.50
2023-01-08T13:34:39.769Z,4.57
2023-01-08T13:38:22.215Z,1.52
2023-01-08T13:42:29.380Z,2.15
2023-01-08T13:46:17.847Z,1.85
2023-01-08T13:50:05.802Z,2.42
2023-01-08T13:53:47.550Z,2.63
2023-01-08T13:57:38.090Z,1.88
2023-01-08T14:01:21.158Z,3.08
2023-01-08T14:05:12.213Z,2.15
2023-01-08T14:09:03.622Z,1.60
2023-01-08T14:12:46.139Z,3.05
2023-01-08T14:16:28.381Z,3.08
2023-01-08T14:20:12.590Z,5.28
2023-01-08T14:23:54.728Z,3.03
2023-01-08T14:27:36.552Z,2.67
2023-01-08T14:31:26.666Z,4.85
2023-01-08T14:35:10.153Z,2.05
2023-01-08T14:38:52.350Z,2.20
2023-01-08T14:42:44.528Z,4.95
2023-01-08T14:46:29.522Z,2.53
2023-01-08T14:50:28.823Z,4.47
2023-01-08T14:54:22.335Z,2.72
2023-01-08T14:58:16.723Z,3.40
2023-01-08T15:02:01.345Z,4.93
2023-01-08T15:05:49.911Z,1.58
2023-01-08T15:09:34.704Z,3.80
2023-01-08T15:13:24.801Z,2.42
2023-01-08T15:17:11.547Z,1.95
2023-01-08T15:20:54.520Z,3.58
2023-01-08T15:24:39.894Z,3.03
2023-01-08T15:28:22.101Z,2.47
2023-01-08T15:32:15.759Z,3.38
2023-01-08T15:35:58.526Z,3.40
2023-01-08T15:39:40.413Z,2.30
2023-01-08T15:43:22.306Z,7.18
2023-01-08T15:47:04.244Z,1.52
2023-01-08T15:50:46.128Z,1.52
2023-01-08T15:54:27.858Z,4.75
2023-01-08T15:58:12.070Z,1.33
2023-01-08T16:01:53.973Z,0.90
2023-01-08T16:05:36.776Z,2.40
2023-01-08T16:09:18.511Z,2.97
2023-01-08T16:13:01.379Z,3.63
2023-01-08T16:16:43.154Z,5.15
2023-01-08T16:20:25.168Z,2.55
2023-01-08T16:24:07.481Z,4.32
2023-01-08T16:27:49.503Z,2.60
2023-01-08T16:31:31.275Z,2.45
2023-01-08T16:35:13.045Z,2.40
2023-01-08T16:38:54.779Z,1.90
2023-01-08T16:42:37.038Z,2.97
2023-01-08T16:46:19.033Z,4.78
2023-01-08T16:50:00.844Z,5.30
2023-01-08T16:53:42.645Z,2.90
2023-01-08T16:57:24.436Z,1.65
2023-01-08T17:01:10.884Z,2.35
2023-01-08T17:04:52.921Z,3.67
2023-01-08T17:08:39.769Z,1.60
2023-01-08T17:12:24.314Z,3.35
2023-01-08T17:16:08.641Z,3.50
2023-01-08T17:19:52.040Z,4.07
2023-01-08T17:23:34.013Z,3.92
2023-01-08T17:27:15.818Z,3.00
2023-01-08T17:31:26.889Z,4.75
2023-01-08T17:35:09.251Z,5.45
2023-01-08T17:38:53.408Z,8.70
2023-01-08T17:42:35.262Z,4.97
2023-01-08T17:46:16.987Z,7.03
2023-01-08T17:49:58.785Z,4.38
2023-01-08T17:53:40.731Z,5.85
2023-01-08T17:57:22.983Z,5.03
2023-01-08T18:01:09.946Z,7.45
2023-01-08T18:04:51.868Z,10.15
2023-01-08T18:08:33.701Z,7.25
2023-01-08T18:12:15.467Z,9.10
2023-01-08T18:16:03.033Z,6.82
2023-01-08T18:19:44.824Z,9.57
2023-01-08T18:23:26.699Z,13.40
2023-01-08T18:27:09.239Z,8.93
2023-01-08T18:30:50.972Z,9.25
2023-01-08T18:34:32.811Z,8.38
2023-01-08T18:38:15.820Z,11.25
2023-01-08T18:42:16.467Z,10.38
2023-01-08T18:46:00.670Z,6.07
2023-01-08T18:49:42.555Z,5.70
2023-01-08T18:53:24.325Z,13.75
2023-01-08T18:57:06.380Z,8.00
2023-01-08T19:00:48.225Z,11.15
2023-01-08T19:04:30.062Z,13.73
2023-01-08T19:08:11.907Z,11.73
2023-01-08T19:11:53.786Z,6.30
2023-01-08T19:15:36.081Z,13.60
2023-01-08T19:19:19.454Z,11.45
2023-01-08T19:23:01.788Z,12.63
2023-01-08T19:26:44.279Z,8.98
2023-01-08T19:30:26.200Z,11.43
2023-01-08T19:34:09.185Z,14.45
2023-01-08T19:37:51.030Z,9.50
2023-01-08T19:41:51.777Z,11.95
2023-01-08T19:45:37.058Z,7.68
2023-01-08T19:49:18.851Z,15.23
2023-01-08T19:53:00.618Z,8.32
2023-01-08T19:56:42.413Z,19.63
2023-01-08T20:00:24.173Z,10.63
2023-01-08T20:04:05.940Z,10.82
2023-01-08T20:07:47.682Z,6.47
2023-01-08T20:11:29.858Z,5.03
2023-01-08T20:15:11.607Z,4.07
2023-01-08T20:19:03.458Z,6.40
2023-01-08T20:22:45.212Z,5.07
2023-01-08T20:26:28.549Z,8.35
2023-01-08T20:30:10.851Z,6.05
2023-01-08T20:33:53.107Z,5.68
2023-01-08T20:37:34.938Z,3.65
2023-01-08T20:41:16.698Z,7.03
2023-01-08T20:44:58.428Z,10.52
2023-01-08T20:48:47.768Z,8.70
2023-01-08T20:52:30.639Z,10.80
2023-01-08T20:56:14.497Z,11.43
2023-01-08T20:59:56.327Z,14.20
2023-01-08T21:03:39.115Z,6.82
2023-01-08T21:07:20.924Z,10.07
2023-01-08T21:11:05.175Z,11.27
2023-01-08T21:14:46.941Z,13.73
2023-01-08T21:18:29.521Z,12.25
2023-01-08T21:22:11.281Z,13.20
2023-01-08T21:26:06.137Z,10.52
2023-01-08T21:29:47.991Z,5.75
2023-01-08T21:33:29.743Z,7.63
2023-01-08T21:37:11.984Z,10.70
2023-01-08T21:41:01.399Z,5.93
2023-01-08T21:45:01.717Z,7.38
2023-01-08T21:48:44.723Z,5.07
2023-01-08T21:52:45.240Z,3.38
2023-01-08T21:56:28.595Z,5.70
2023-01-08T22:00:11.764Z,1.65
2023-01-08T22:03:53.561Z,2.95
2023-01-08T22:07:35.516Z,7.82
2023-01-08T22:11:17.319Z,5.70
2023-01-08T22:14:59.322Z,6.25
2023-01-08T22:18:41.254Z,10.10
2023-01-08T22:22:23.075Z,4.97
2023-01-08T22:26:06.969Z,6.38
2023-01-08T22:29:49.506Z,3.63
2023-01-08T22:33:31.263Z,1.98
2023-01-08T22:37:13.020Z,4.25
2023-01-08T22:40:55.645Z,4.65
2023-01-08T22:44:37.426Z,1.45
2023-01-08T22:48:19.228Z,1.52
2023-01-08T22:52:00.968Z,4.93
2023-01-08T22:55:47.366Z,3.33
2023-01-08T22:59:29.472Z,3.27
2023-01-08T23:03:11.627Z,2.05
2023-01-08T23:06:53.460Z,2.45
2023-01-08T23:10:35.310Z,1.58
2023-01-08T23:14:17.085Z,1.42
2023-01-08T23:17:58.870Z,6.10
2023-01-08T23:21:40.658Z,2.80
2023-01-08T23:25:22.432Z,5.13
2023-01-08T23:29:04.646Z,5.13
2023-01-08T23:32:46.388Z,5.63
2023-01-08T23:36:28.132Z,15.93
2023-01-08T23:40:10.624Z,6.75
2023-01-08T23:43:52.422Z,6.55
2023-01-08T23:47:34.187Z,8.30
2023-01-08T23:51:15.903Z,5.82
2023-01-08T23:54:57.672Z,5.47
2023-01-08T23:58:39.528Z,10.80
